Time;durP1;ratioP1;P1;durP2;ratioP2;P2;SDS_P1;SDS_P2;PMS_P1;PMS_P2;Temp;Humidity;BMP_temperature;BMP_pressure;BME280_temperature;BME280_humidity;BME280_pressure;Samples;Min_cycle;Max_cycle;Signal;HPM_P1;HPM_P2
2022/07/21 00:00:56;;;;;;;6.65;4.95;;;;;;;26.34;45.58;101675.44;5084444;28;20075;-66
2022/07/21 00:03:24;;;;;;;5.70;4.68;;;;;;;26.31;45.69;101673.25;5088228;28;20052;-66
2022/07/21 00:05:53;;;;;;;6.75;5.30;;;;;;;26.31;45.82;101675.22;5088827;28;20040;-66
2022/07/21 00:08:21;;;;;;;6.60;4.88;;;;;;;26.27;45.60;101670.31;5093745;28;20048;-67
2022/07/21 00:10:49;;;;;;;8.27;5.00;;;;;;;26.26;45.73;101671.44;5085540;28;20044;-66
2022/07/21 00:13:17;;;;;;;8.77;5.20;;;;;;;26.24;46.02;101672.88;5085799;28;20044;-67
2022/07/21 00:15:45;;;;;;;8.45;5.72;;;;;;;26.21;46.02;101662.47;5088585;28;20041;-67
2022/07/21 00:18:13;;;;;;;5.93;5.07;;;;;;;26.14;46.07;101651.03;5097988;28;20040;-67
2022/07/21 00:20:41;;;;;;;8.63;5.45;;;;;;;26.18;46.09;101663.06;5090901;28;20113;-67
2022/07/21 00:23:10;;;;;;;11.70;4.90;;;;;;;26.16;45.98;101668.06;5090520;28;20044;-67
2022/07/21 00:25:38;;;;;;;6.45;5.22;;;;;;;26.14;46.15;101670.31;5077631;28;20056;-67
2022/07/21 00:28:06;;;;;;;6.88;5.05;;;;;;;26.08;46.12;101666.03;5087522;28;20055;-67
2022/07/21 00:30:35;;;;;;;6.57;4.88;;;;;;;26.09;46.17;101671.25;5086847;28;20044;-67
2022/07/21 00:33:02;;;;;;;6.05;5.15;;;;;;;26.09;46.04;101679.50;5087124;28;20132;-67
2022/07/21 00:35:30;;;;;;;6.32;4.43;;;;;;;26.08;46.13;101679.81;5081586;28;20052;-67
2022/07/21 00:37:58;;;;;;;7.28;5.22;;;;;;;26.06;46.17;101677.34;5084523;28;20048;-68
2022/07/21 00:40:28;;;;;;;7.00;5.35;;;;;;;26.04;46.47;101682.34;5075646;28;20055;-68
2022/07/21 00:42:56;;;;;;;6.03;4.93;;;;;;;26.03;46.18;101666.13;5101178;28;20056;-68
2022/07/21 00:45:24;;;;;;;9.35;5.55;;;;;;;26.01;46.61;101666.44;5085032;28;20051;-67
2022/07/21 00:47:52;;;;;;;8.32;5.53;;;;;;;25.97;46.51;101657.19;5092593;28;20043;-68
2022/07/21 00:50:21;;;;;;;8.55;5.20;;;;;;;25.96;46.73;101658.31;5075604;28;20040;-67
2022/07/21 00:52:50;;;;;;;7.57;5.88;;;;;;;25.94;46.54;101664.13;5095717;28;20071;-67
2022/07/21 00:55:20;;;;;;;6.50;4.90;;;;;;;25.92;46.42;101666.38;5081415;28;20056;-67
2022/07/21 00:57:50;;;;;;;6.95;5.22;;;;;;;25.90;46.63;101659.53;5077294;28;20091;-67
2022/07/21 01:00:23;;;;;;;6.32;5.20;;;;;;;25.88;46.68;101656.25;5077710;28;20052;-67
2022/07/21 01:02:51;;;;;;;8.05;5.03;;;;;;;25.83;46.52;101645.34;5081475;28;20049;-67
2022/07/21 01:05:19;;;;;;;8.27;5.63;;;;;;;25.83;46.71;101648.91;5085501;28;20044;-67
2022/07/21 01:07:48;;;;;;;6.55;5.30;;;;;;;25.82;47.25;101646.47;5083791;28;20048;-67
2022/07/21 01:10:18;;;;;;;6.35;5.40;;;;;;;25.81;46.70;101648.41;5095578;28;20041;-67
2022/07/21 01:12:46;;;;;;;9.82;5.13;;;;;;;25.74;46.88;101647.16;5078836;28;20040;-67
2022/07/21 01:15:19;;;;;;;8.00;5.80;;;;;;;25.78;46.71;101657.28;5082895;28;20079;-66
2022/07/21 01:17:47;;;;;;;7.88;6.13;;;;;;;25.75;46.59;101646.06;5082410;28;20052;-67
2022/07/21 01:20:18;;;;;;;7.00;5.68;;;;;;;25.71;46.81;101637.59;5082075;28;20059;-67
2022/07/21 01:22:49;;;;;;;8.70;5.88;;;;;;;25.72;46.88;101646.66;5076782;28;20036;-67
2022/07/21 01:25:19;;;;;;;7.90;4.72;;;;;;;25.69;47.00;101644.50;5084152;28;20052;-67
2022/07/21 01:27:46;;;;;;;8.05;5.60;;;;;;;25.68;46.82;101651.97;5068541;28;20037;-67
2022/07/21 01:30:15;;;;;;;6.28;5.00;;;;;;;25.65;47.01;101649.81;5083250;28;20410;-66
2022/07/21 01:32:43;;;;;;;7.07;5.53;;;;;;;25.62;47.14;101647.63;5083429;28;20044;-67
2022/07/21 01:35:14;;;;;;;7.32;5.38;;;;;;;25.60;46.97;101650.69;5084403;28;20189;-67
2022/07/21 01:37:44;;;;;;;6.93;5.47;;;;;;;25.56;47.13;101640.59;5082009;28;20048;-67
2022/07/21 01:43:17;;;;;;;11.10;5.70;;;;;;;25.53;47.12;101650.28;5157891;27;20405;-67
2022/07/21 01:45:45;;;;;;;6.55;4.90;;;;;;;25.51;47.18;101648.94;5139097;27;20047;-67
2022/07/21 01:48:13;;;;;;;6.82;6.13;;;;;;;25.49;47.09;101640.97;5151020;27;20050;-67
2022/07/21 01:50:41;;;;;;;7.18;5.53;;;;;;;25.44;47.11;101638.31;5149796;27;20115;-66
2022/07/21 01:53:08;;;;;;;7.70;5.70;;;;;;;25.44;47.15;101638.31;5138320;27;20043;-66
2022/07/21 01:55:36;;;;;;;7.70;6.00;;;;;;;25.41;47.23;101638.09;5140326;27;20052;-66
2022/07/21 01:58:04;;;;;;;9.10;5.53;;;;;;;25.41;47.14;101635.34;5154004;27;20488;-66
2022/07/21 02:00:33;;;;;;;7.78;5.55;;;;;;;25.35;47.42;101633.81;5145731;27;20043;-65
2022/07/21 02:03:01;;;;;;;8.50;5.80;;;;;;;25.35;47.50;101629.13;5143498;27;20043;-67
2022/07/21 02:05:29;;;;;;;6.75;5.40;;;;;;;25.34;47.72;101623.94;5154151;27;20077;-67
2022/07/21 02:07:57;;;;;;;9.73;6.15;;;;;;;25.32;47.78;101639.91;5144292;27;20079;-67
2022/07/21 02:10:24;;;;;;;8.77;5.85;;;;;;;25.30;47.67;101645.72;5139647;27;20051;-67
2022/07/21 02:12:52;;;;;;;7.35;5.28;;;;;;;25.26;47.54;101645.50;5146478;27;20044;-67
2022/07/21 02:15:20;;;;;;;6.95;5.30;;;;;;;25.26;47.55;101639.19;5138814;27;20052;-66
2022/07/21 02:17:49;;;;;;;6.68;5.55;;;;;;;25.24;47.67;101633.19;5146221;27;20051;-67
2022/07/21 02:20:17;;;;;;;6.60;5.65;;;;;;;25.24;47.51;101630.41;5144990;27;20052;-67
2022/07/21 02:22:45;;;;;;;7.45;5.13;;;;;;;25.21;47.74;101620.84;5129088;27;20071;-67
2022/07/21 02:25:13;;;;;;;8.25;5.13;;;;;;;25.20;47.72;101621.97;5149259;27;20055;-67
2022/07/21 02:27:41;;;;;;;8.60;5.63;;;;;;;25.19;47.69;101614.00;5123403;27;20051;-67
2022/07/21 02:30:10;;;;;;;7.30;5.50;;;;;;;25.19;48.08;101630.50;5131077;28;20055;-67
2022/07/21 02:32:38;;;;;;;9.00;6.50;;;;;;;25.13;47.71;101623.47;5133159;27;20040;-67
2022/07/21 02:35:08;;;;;;;8.80;5.88;;;;;;;25.16;47.98;101642.94;5137942;27;20549;-66
2022/07/21 02:37:37;;;;;;;6.63;5.38;;;;;;;25.14;47.95;101630.59;5137295;27;20112;-66
2022/07/21 02:40:06;;;;;;;6.97;5.43;;;;;;;25.11;48.05;101620.19;5146450;27;20051;-66
2022/07/21 02:42:34;;;;;;;9.40;5.65;;;;;;;25.12;47.76;101621.81;5131944;27;20178;-67
2022/07/21 02:45:02;;;;;;;10.68;5.90;;;;;;;25.12;47.82;101627.31;5137073;27;20046;-66
2022/07/21 02:47:30;;;;;;;7.32;5.22;;;;;;;25.10;48.19;101630.38;5146832;27;20043;-66
2022/07/21 02:49:57;;;;;;;7.47;5.60;;;;;;;25.08;48.13;101627.13;5147410;27;20150;-66
2022/07/21 02:52:26;;;;;;;8.20;5.35;;;;;;;25.06;48.41;101626.59;5152825;27;20047;-66
2022/07/21 02:54:54;;;;;;;6.55;5.28;;;;;;;25.05;47.98;101624.97;5128752;27;20077;-66
2022/07/21 02:57:22;;;;;;;6.45;5.25;;;;;;;25.05;48.38;101624.97;5131948;27;20054;-67
2022/07/21 02:59:50;;;;;;;6.75;5.53;;;;;;;25.04;47.98;101622.50;5128144;27;20063;-67
2022/07/21 03:02:18;;;;;;;8.98;5.70;;;;;;;25.02;48.38;101631.06;5117690;27;20107;-65
2022/07/21 03:04:45;;;;;;;7.53;5.50;;;;;;;25.01;48.15;101632.19;5136747;27;20051;-65
2022/07/21 03:07:13;;;;;;;7.45;5.43;;;;;;;25.00;47.93;101625.03;5127613;27;20095;-65
2022/07/21 03:09:42;;;;;;;7.97;5.28;;;;;;;24.97;48.13;101629.22;5126765;27;20074;-66
2022/07/21 03:12:10;;;;;;;6.00;4.82;;;;;;;24.96;48.06;101627.56;5122767;27;20039;-66
2022/07/21 03:14:38;;;;;;;6.72;5.22;;;;;;;24.81;48.02;101597.53;5126426;27;20052;-67
2022/07/21 03:17:06;;;;;;;6.00;5.32;;;;;;;24.94;47.91;101623.47;5126900;27;20060;-66
2022/07/21 03:19:33;;;;;;;8.20;5.10;;;;;;;24.93;48.21;101624.56;5127737;27;20048;-67
2022/07/21 03:22:01;;;;;;;8.27;5.82;;;;;;;24.91;48.23;101619.38;5123345;27;20051;-66
2022/07/21 03:24:29;;;;;;;7.93;5.43;;;;;;;24.88;48.16;101616.41;5124851;27;20039;-67
2022/07/21 03:26:59;;;;;;;6.72;5.43;;;;;;;24.87;47.99;101620.28;5122680;27;20082;-66
2022/07/21 03:29:34;;;;;;;8.05;6.13;;;;;;;24.87;48.41;101618.34;5112150;27;20089;-67
2022/07/21 03:32:01;;;;;;;7.07;4.88;;;;;;;24.86;48.64;101613.13;5129942;27;20044;-66
2022/07/21 03:34:29;;;;;;;7.43;5.38;;;;;;;24.86;48.41;101613.13;5123345;27;20077;-66
2022/07/21 03:36:57;;;;;;;7.47;5.10;;;;;;;24.84;48.15;101615.38;5126043;28;20052;-66
2022/07/21 03:39:25;;;;;;;8.32;5.40;;;;;;;24.82;48.61;101620.34;5132991;27;20047;-66
2022/07/21 03:41:52;;;;;;;7.57;5.18;;;;;;;24.80;48.27;101620.66;5119600;27;20056;-66
2022/07/21 03:44:22;;;;;;;8.30;5.60;;;;;;;24.80;48.37;101622.59;5131508;27;20039;-67
2022/07/21 03:46:49;;;;;;;7.82;4.75;;;;;;;24.79;48.46;101630.00;5134015;27;20092;-66
2022/07/21 03:49:17;;;;;;;9.68;6.30;;;;;;;24.77;48.46;101629.50;5138968;27;20062;-66
2022/07/21 03:51:45;;;;;;;8.43;5.38;;;;;;;24.73;48.38;101622.16;5123414;27;20047;-67
2022/07/21 03:54:13;;;;;;;6.65;5.07;;;;;;;24.75;48.67;101626.22;5118037;28;20039;-65
2022/07/21 03:56:41;;;;;;;7.43;5.32;;;;;;;24.71;48.38;101630.69;5122395;27;20047;-66
2022/07/21 03:59:09;;;;;;;7.45;5.60;;;;;;;24.70;48.60;101634.56;5135226;27;20380;-65
2022/07/21 04:01:38;;;;;;;5.57;4.68;;;;;;;24.69;48.66;101632.09;5127145;27;20072;-65
2022/07/21 04:04:05;;;;;;;9.27;6.30;;;;;;;24.62;48.86;101626.97;5124148;27;20135;-65
2022/07/21 04:06:33;;;;;;;7.57;5.03;;;;;;;24.65;48.92;101642.88;5123149;27;20092;-66
2022/07/21 04:09:01;;;;;;;7.32;5.05;;;;;;;24.62;48.59;101638.78;5124018;27;20039;-66
2022/07/21 04:11:30;;;;;;;7.65;5.05;;;;;;;24.61;49.13;101634.41;5128756;27;20047;-66
2022/07/21 04:13:58;;;;;;;7.40;5.25;;;;;;;24.59;48.79;101638.56;5122615;27;20097;-66
2022/07/21 04:16:26;;;;;;;8.68;5.25;;;;;;;24.57;48.71;101636.09;5128328;27;20055;-66
2022/07/21 04:18:56;;;;;;;9.05;6.13;;;;;;;24.55;49.24;101645.75;5124349;28;20069;-66
2022/07/21 04:21:23;;;;;;;7.38;5.10;;;;;;;24.55;48.77;101632.84;5127572;27;20050;-66
2022/07/21 04:23:51;;;;;;;6.82;5.07;;;;;;;24.54;48.96;101633.97;5132662;27;20051;-66
2022/07/21 04:26:19;;;;;;;9.43;5.72;;;;;;;24.50;49.19;101624.66;5123545;27;20125;-66
2022/07/21 04:28:47;;;;;;;8.88;5.82;;;;;;;24.49;49.00;101631.28;5128023;27;20717;-66
2022/07/21 04:31:15;;;;;;;6.70;5.05;;;;;;;24.47;49.04;101628.00;5130407;27;20051;-66
2022/07/21 04:33:43;;;;;;;8.55;5.07;;;;;;;24.45;48.91;101632.16;5125645;27;20048;-67
2022/07/21 04:36:12;;;;;;;7.63;4.78;;;;;;;24.46;49.46;101631.06;5122152;27;20083;-66
2022/07/21 04:38:39;;;;;;;7.45;4.65;;;;;;;24.44;49.45;101627.78;5130171;27;20047;-67
2022/07/21 04:41:07;;;;;;;9.98;4.88;;;;;;;24.39;49.20;101623.19;5128193;27;20154;-66
2022/07/21 04:43:35;;;;;;;12.80;5.45;;;;;;;24.42;49.47;101628.06;5124826;27;20048;-66
2022/07/21 04:46:03;;;;;;;7.85;5.25;;;;;;;24.41;49.35;101629.19;5125004;27;20050;-66
2022/07/21 04:48:31;;;;;;;6.45;5.15;;;;;;;24.40;49.19;101635.81;5127737;27;20078;-65
2022/07/21 04:50:58;;;;;;;8.88;5.05;;;;;;;24.39;49.25;101633.34;5126081;27;20472;-67
2022/07/21 04:53:28;;;;;;;10.85;4.78;;;;;;;24.39;49.08;101628.66;5122991;28;20043;-66
2022/07/21 04:55:55;;;;;;;6.38;4.82;;;;;;;24.37;49.41;101630.91;5119356;27;20044;-66
2022/07/21 04:58:23;;;;;;;6.22;4.97;;;;;;;24.38;49.28;101632.53;5116510;27;20046;-67
2022/07/21 05:00:51;;;;;;;8.05;5.25;;;;;;;24.38;48.91;101634.47;5133341;27;20067;-69
2022/07/21 05:03:19;;;;;;;6.72;4.57;;;;;;;24.36;49.32;101633.94;5113638;27;20047;-68
2022/07/21 05:05:47;;;;;;;7.97;5.20;;;;;;;24.31;48.80;101632.06;5124167;27;20052;-67
2022/07/21 05:08:15;;;;;;;7.40;5.03;;;;;;;24.30;49.07;101639.50;5119500;28;20048;-67
2022/07/21 05:10:44;;;;;;;7.65;4.60;;;;;;;24.32;49.25;101637.28;5126901;27;20043;-67
2022/07/21 05:13:12;;;;;;;7.85;4.47;;;;;;;24.32;49.71;101639.22;5119341;27;20062;-67
2022/07/21 05:15:40;;;;;;;6.95;4.50;;;;;;;24.32;49.14;101640.03;5123829;27;20040;-67
2022/07/21 05:18:09;;;;;;;6.45;4.75;;;;;;;24.31;49.00;101637.56;5122022;27;20048;-73
2022/07/21 05:20:36;;;;;;;6.85;4.18;;;;;;;24.29;48.98;101635.13;5113338;27;20055;-68
2022/07/21 05:23:04;;;;;;;6.40;4.47;;;;;;;24.29;49.59;101628.81;5124347;28;20078;-66
2022/07/21 05:25:35;;;;;;;9.32;4.57;;;;;;;24.31;49.76;101627.41;5129433;27;20519;-63
2022/07/21 05:28:06;;;;;;;5.68;4.22;;;;;;;24.47;48.81;101622.50;5126054;27;20047;-64
2022/07/21 05:30:35;;;;;;;6.10;3.90;;;;;;;24.48;48.79;101635.13;5114742;27;20047;-65
2022/07/21 05:33:03;;;;;;;6.47;4.63;;;;;;;24.35;49.19;101633.13;5131267;27;20058;-66
2022/07/21 05:35:31;;;;;;;5.57;4.32;;;;;;;24.30;49.16;101635.94;4763784;27;10000129;-64
2022/07/21 05:37:58;;;;;;;6.70;4.35;;;;;;;24.36;49.49;101633.94;5120602;27;20043;-66
2022/07/21 05:40:26;;;;;;;8.93;4.40;;;;;;;24.28;48.87;101636.22;5123916;28;20109;-64
2022/07/21 05:42:54;;;;;;;5.63;3.70;;;;;;;24.24;49.69;101634.38;5118457;27;20083;-65
2022/07/21 05:45:23;;;;;;;5.65;4.05;;;;;;;24.22;49.43;101628.34;5119027;28;20052;-64
2022/07/21 05:47:51;;;;;;;9.20;4.78;;;;;;;24.28;49.86;101635.41;5125132;28;20065;-68
2022/07/21 05:50:19;;;;;;;7.80;4.53;;;;;;;24.20;49.58;101634.13;5120401;28;20150;-66
2022/07/21 05:52:46;;;;;;;9.73;5.43;;;;;;;24.29;50.01;101631.56;5115178;28;20571;-68
2022/07/21 05:55:14;;;;;;;7.70;4.53;;;;;;;24.21;49.99;101623.97;5120004;28;20047;-68
2022/07/21 05:57:42;;;;;;;11.82;4.43;;;;;;;24.41;50.00;101615.44;5118202;28;20051;-68
2022/07/21 06:00:15;;;;;;;9.68;5.43;;;;;;;24.26;49.69;101623.94;5122920;28;20062;-67
2022/07/21 06:02:44;;;;;;;10.48;4.90;;;;;;;24.16;49.92;101624.84;5115438;28;20057;-69
2022/07/21 06:05:12;;;;;;;6.22;3.92;;;;;;;24.24;49.76;101629.69;5125661;28;20097;-71
2022/07/21 06:07:41;;;;;;;10.32;5.30;;;;;;;24.16;49.79;101633.09;5115726;28;20070;-70
2022/07/21 06:10:09;;;;;;;7.85;4.82;;;;;;;24.11;49.82;101627.66;5124460;28;20047;-68
2022/07/21 06:12:42;;;;;;;8.20;5.22;;;;;;;24.08;50.22;101633.75;5119229;28;20122;-68
2022/07/21 06:15:11;;;;;;;9.82;5.35;;;;;;;24.05;50.08;101634.31;5111847;28;20048;-69
2022/07/21 06:17:40;;;;;;;9.05;5.47;;;;;;;24.04;50.95;101635.44;5121741;28;20047;-69
2022/07/21 06:20:10;;;;;;;11.45;6.05;;;;;;;23.98;50.78;101640.16;5127910;28;20072;-69
2022/07/21 06:22:38;;;;;;;15.13;5.18;;;;;;;23.98;51.09;101642.91;5130429;28;20361;-68
2022/07/21 06:25:07;;;;;;;7.65;4.93;;;;;;;23.94;50.48;101628.13;5143972;28;20050;-68
2022/07/21 06:27:34;;;;;;;11.55;5.30;;;;;;;23.98;50.58;101625.63;5122788;28;20051;-69
2022/07/21 06:30:03;;;;;;;14.38;5.88;;;;;;;23.98;50.85;101628.38;5110301;27;20079;-69
2022/07/21 06:32:30;;;;;;;10.77;6.00;;;;;;;23.98;50.13;101633.84;5130534;27;20040;-70
2022/07/21 06:34:58;;;;;;;8.70;6.07;;;;;;;23.99;50.52;101632.75;5134880;27;20084;-69
2022/07/21 06:37:27;;;;;;;12.65;6.15;;;;;;;23.99;50.35;101638.25;5128232;27;20078;-67
2022/07/21 06:39:55;;;;;;;9.55;5.78;;;;;;;24.17;50.77;101637.47;5128360;27;20044;-68
2022/07/21 06:42:23;;;;;;;11.98;6.65;;;;;;;24.12;51.80;101637.53;5121166;27;20113;-67
2022/07/21 06:44:51;;;;;;;9.93;6.28;;;;;;;24.10;51.33;101637.00;5123048;27;20047;-69
2022/07/21 06:47:20;;;;;;;13.45;7.38;;;;;;;24.53;49.61;101637.00;5124875;27;20051;-68
2022/07/21 06:49:48;;;;;;;11.00;6.25;;;;;;;24.27;50.52;101642.03;5121841;27;20066;-68
2022/07/21 06:52:15;;;;;;;9.85;6.88;;;;;;;24.31;50.10;101638.38;5124605;27;20043;-63
2022/07/21 06:54:45;;;;;;;13.27;7.53;;;;;;;24.20;50.40;101638.81;5122493;27;20111;-65
2022/07/21 06:57:13;;;;;;;14.02;8.20;;;;;;;24.24;49.86;101640.69;5120226;27;20052;-65
2022/07/21 06:59:41;;;;;;;11.50;7.47;;;;;;;24.14;50.29;101643.56;5122565;28;20061;-66
2022/07/21 07:02:08;;;;;;;10.85;7.82;;;;;;;24.26;50.69;101659.66;5116669;28;20060;-63
2022/07/21 07:04:37;;;;;;;13.38;9.10;;;;;;;24.16;50.25;101668.78;5119349;28;20834;-64
2022/07/21 07:07:05;;;;;;;18.42;7.55;;;;;;;24.35;50.52;101666.09;5118125;28;20051;-65
2022/07/21 07:09:33;;;;;;;13.75;7.65;;;;;;;24.21;50.27;101667.91;5121051;28;20047;-65
2022/07/21 07:12:04;;;;;;;13.95;8.30;;;;;;;24.28;51.39;101662.88;5121966;27;20105;-65
2022/07/21 07:14:51;;;;;;;11.88;7.45;;;;;;;24.26;51.57;101667.88;5119019;28;20142;-64
2022/07/21 07:17:19;;;;;;;13.73;8.10;;;;;;;24.30;50.57;101660.66;5121498;28;20081;-65
2022/07/21 07:19:48;;;;;;;12.00;8.07;;;;;;;24.25;50.58;101663.47;5121450;28;20036;-65
2022/07/21 07:22:16;;;;;;;10.60;7.47;;;;;;;24.18;50.91;101660.25;5120695;27;20128;-65
2022/07/21 07:24:44;;;;;;;11.57;7.55;;;;;;;24.15;50.72;101658.91;5120030;28;20507;-65
2022/07/21 07:27:13;;;;;;;11.23;7.40;;;;;;;24.23;51.00;101650.03;5120383;27;20058;-63
2022/07/21 07:29:41;;;;;;;10.55;7.22;;;;;;;24.17;51.11;101656.69;5119055;28;20039;-65
2022/07/21 07:32:09;;;;;;;12.48;7.25;;;;;;;24.23;50.79;101662.94;5125554;27;20056;-66
2022/07/21 07:34:37;;;;;;;11.85;7.32;;;;;;;24.16;50.62;101654.25;5124427;27;20054;-65
2022/07/21 07:37:05;;;;;;;12.20;7.65;;;;;;;24.13;50.88;101657.56;5120186;27;20051;-65
2022/07/21 07:39:32;;;;;;;12.00;7.20;;;;;;;24.11;51.00;101663.38;5120922;28;20357;-65
2022/07/21 07:42:00;;;;;;;11.32;7.25;;;;;;;24.09;50.84;101660.09;5119136;28;20158;-63
2022/07/21 07:44:29;;;;;;;11.73;7.65;;;;;;;24.07;51.27;101656.81;5119131;27;20398;-64
2022/07/21 07:46:57;;;;;;;11.45;7.40;;;;;;;24.05;51.33;101659.03;5121694;27;20078;-63
2022/07/21 07:49:25;;;;;;;9.23;7.38;;;;;;;24.03;52.15;101658.50;5120957;28;20155;-63
2022/07/21 07:51:53;;;;;;;9.93;6.88;;;;;;;24.02;51.76;101665.13;5121339;28;20097;-62
2022/07/21 07:54:20;;;;;;;11.18;7.32;;;;;;;23.99;51.55;101662.97;5121974;28;20043;-63
2022/07/21 07:56:49;;;;;;;11.60;7.68;;;;;;;23.97;52.18;101676.16;5118388;27;20047;-64
2022/07/21 07:59:16;;;;;;;14.00;7.20;;;;;;;23.95;52.65;101675.63;5125896;27;20050;-65
2022/07/21 08:01:45;;;;;;;10.13;6.78;;;;;;;23.94;52.49;101668.50;5118556;28;20044;-63
2022/07/21 08:04:14;;;;;;;11.38;6.70;;;;;;;23.92;52.58;101674.28;5118461;28;20050;-62
2022/07/21 08:06:42;;;;;;;13.77;6.85;;;;;;;23.90;52.57;101672.94;5122449;27;20050;-62
2022/07/21 08:09:10;;;;;;;11.05;6.78;;;;;;;23.89;52.77;101669.38;5119436;27;20051;-62
2022/07/21 08:11:38;;;;;;;11.18;6.18;;;;;;;23.87;53.05;101671.59;5126543;27;20074;-61
2022/07/21 08:14:05;;;;;;;10.27;6.43;;;;;;;23.86;53.04;101666.41;5123237;28;20047;-63
2022/07/21 08:16:35;;;;;;;9.23;6.30;;;;;;;23.85;53.39;101670.25;5124664;27;20090;-63
2022/07/21 08:19:04;;;;;;;11.52;6.47;;;;;;;23.83;53.38;101678.78;5123531;27;20059;-63
2022/07/21 08:21:34;;;;;;;10.40;5.88;;;;;;;23.82;53.78;101674.41;5125358;28;20100;-63
2022/07/21 08:24:22;;;;;;;9.27;6.50;;;;;;;23.81;53.30;101671.94;5144483;27;20075;-64
2022/07/21 08:26:50;;;;;;;9.60;6.05;;;;;;;23.81;53.67;101678.25;5130741;27;20046;-64
2022/07/21 08:29:18;;;;;;;12.20;6.25;;;;;;;23.80;53.45;101671.13;5114239;27;20048;-63
2022/07/21 08:31:46;;;;;;;11.18;5.63;;;;;;;23.79;53.54;101683.22;5120239;28;20048;-63
2022/07/21 08:34:15;;;;;;;9.15;5.47;;;;;;;23.75;53.42;101665.69;5115368;28;20485;-63
2022/07/21 08:36:43;;;;;;;8.68;5.50;;;;;;;23.76;52.84;101669.25;5139079;27;20055;-64
2022/07/21 08:39:10;;;;;;;9.20;4.88;;;;;;;23.71;53.01;101670.13;5116229;27;20051;-63
2022/07/21 08:41:40;;;;;;;9.27;5.20;;;;;;;23.74;53.14;101679.69;5122640;27;20066;-63
2022/07/21 08:44:10;;;;;;;9.38;5.05;;;;;;;23.72;53.07;101677.25;5144779;27;20664;-63
2022/07/21 08:46:41;;;;;;;7.75;4.90;;;;;;;23.71;52.96;101670.13;5139146;27;20054;-63
2022/07/21 08:49:10;;;;;;;10.48;5.28;;;;;;;23.69;53.31;101678.66;5136380;27;20054;-63
2022/07/21 08:51:39;;;;;;;6.85;4.93;;;;;;;23.67;53.46;101677.28;5120770;27;20051;-62
2022/07/21 08:54:07;;;;;;;6.63;4.80;;;;;;;23.66;53.82;101684.72;5134182;27;20062;-62
2022/07/21 08:56:35;;;;;;;7.22;5.57;;;;;;;23.64;54.12;101675.13;5130101;27;20055;-63
2022/07/21 08:59:05;;;;;;;6.50;4.70;;;;;;;23.63;53.93;101684.47;5138882;27;20085;-62
2022/07/21 09:01:33;;;;;;;6.00;4.40;;;;;;;23.61;54.13;101679.28;5129614;27;20039;-63
2022/07/21 09:04:23;;;;;;;14.57;5.38;;;;;;;23.57;54.21;101677.41;5121957;27;20067;-63
2022/07/21 09:06:55;;;;;;;8.63;4.85;;;;;;;23.58;54.45;101676.28;5119999;28;20119;-63
2022/07/21 09:09:23;;;;;;;6.72;4.38;;;;;;;23.56;54.08;101681.25;5116727;28;20044;-63
2022/07/21 09:11:52;;;;;;;5.55;3.97;;;;;;;23.56;54.68;101684.00;5119919;27;20045;-63
2022/07/21 09:14:22;;;;;;;6.88;4.35;;;;;;;23.53;54.58;101687.28;5118606;27;20404;-62
2022/07/21 09:16:52;;;;;;;7.88;4.50;;;;;;;23.50;55.38;101687.84;5124173;27;20063;-62
2022/07/21 09:19:22;;;;;;;5.15;3.88;;;;;;;23.51;55.04;101686.75;5119736;28;20115;-62
2022/07/21 09:21:54;;;;;;;5.93;4.05;;;;;;;23.48;55.69;101690.88;5115421;27;20051;-63
2022/07/21 09:24:26;;;;;;;4.13;3.40;;;;;;;23.47;56.02;101693.91;5117910;28;20070;-63
2022/07/21 09:27:09;;;;;;;6.53;3.60;;;;;;;23.45;55.41;101696.13;5123113;27;20039;-63
2022/07/21 09:29:41;;;;;;;8.30;3.95;;;;;;;23.43;55.58;101692.84;5116126;27;20074;-62
2022/07/21 09:32:18;;;;;;;5.47;3.53;;;;;;;23.39;56.38;101695.34;5121602;28;20291;-62
2022/07/21 09:34:46;;;;;;;4.30;3.03;;;;;;;23.36;56.60;101698.66;5120760;28;20080;-62
2022/07/21 09:37:17;;;;;;;4.93;2.95;;;;;;;23.34;56.74;101695.41;5117976;28;20044;-62
2022/07/21 09:39:46;;;;;;;6.30;2.97;;;;;;;23.34;56.98;101703.63;5116972;28;20812;-62
2022/07/21 09:42:20;;;;;;;3.70;2.88;;;;;;;23.33;56.46;101702.81;5116846;28;20054;-62
2022/07/21 09:44:51;;;;;;;7.03;2.97;;;;;;;23.32;56.87;101701.16;5118352;28;20047;-62
2022/07/21 09:47:25;;;;;;;4.40;3.03;;;;;;;23.23;56.77;101694.66;5118611;28;20078;-62
2022/07/21 09:49:53;;;;;;;4.18;2.72;;;;;;;23.31;56.66;101712.44;5130456;28;20119;-62
2022/07/21 09:52:44;;;;;;;4.10;2.70;;;;;;;23.28;56.86;101702.03;5123037;28;20133;-62
2022/07/21 09:55:14;;;;;;;5.53;2.92;;;;;;;23.26;57.40;101705.06;5121679;28;20341;-62
2022/07/21 09:57:42;;;;;;;4.25;2.67;;;;;;;23.21;57.15;101699.59;5125403;28;20062;-62
2022/07/21 10:00:12;;;;;;;4.00;2.70;;;;;;;23.23;56.87;101707.56;5137113;28;20047;-63
2022/07/21 10:02:46;;;;;;;4.22;2.50;;;;;;;23.09;57.34;101701.88;5119414;28;20058;-62
2022/07/21 10:05:16;;;;;;;3.90;2.75;;;;;;;23.18;56.78;101726.78;5127243;27;20081;-62
2022/07/21 10:07:47;;;;;;;4.65;2.95;;;;;;;23.16;57.51;101720.75;5127944;27;20100;-62
2022/07/21 10:10:16;;;;;;;3.30;2.35;;;;;;;23.15;57.04;101725.44;5131979;27;20563;-62
2022/07/21 10:12:49;;;;;;;3.10;2.45;;;;;;;23.15;56.79;101733.66;5121216;27;20450;-62
2022/07/21 10:15:18;;;;;;;3.47;2.30;;;;;;;23.14;56.94;101729.28;5148348;27;20047;-63
2022/07/21 10:17:49;;;;;;;3.22;2.40;;;;;;;23.15;56.97;101735.59;5146174;27;20047;-62
2022/07/21 10:20:22;;;;;;;4.55;2.38;;;;;;;23.13;56.88;101735.88;5120046;27;20051;-63
2022/07/21 10:23:03;;;;;;;4.65;2.90;;;;;;;23.14;56.99;101737.50;5136478;27;20051;-63
2022/07/21 10:25:31;;;;;;;3.05;2.40;;;;;;;23.14;56.53;101750.41;5135812;27;20118;-62
2022/07/21 10:28:17;;;;;;;4.22;2.78;;;;;;;23.13;56.42;101746.84;5131538;27;20073;-63
2022/07/21 10:30:46;;;;;;;4.07;2.67;;;;;;;23.12;56.60;101753.44;5133768;27;20047;-63
2022/07/21 10:33:16;;;;;;;3.45;2.65;;;;;;;23.11;56.94;101754.53;5126411;28;20069;-63
2022/07/21 10:35:45;;;;;;;3.60;2.42;;;;;;;23.10;56.56;101757.56;5129167;27;20054;-62
2022/07/21 10:38:29;;;;;;;4.82;2.53;;;;;;;23.09;56.53;101754.00;5128195;27;20047;-63
2022/07/21 10:40:57;;;;;;;4.03;2.40;;;;;;;23.08;56.61;101752.34;5122063;27;20119;-63
2022/07/21 10:43:43;;;;;;;3.33;2.63;;;;;;;23.03;56.45;101750.47;5125513;28;20051;-63
2022/07/21 10:46:38;;;;;;;4.70;2.70;;;;;;;23.08;56.71;101765.25;5118076;27;20362;-63
2022/07/21 10:49:07;;;;;;;4.97;2.80;;;;;;;23.04;56.28;101760.31;5116564;27;20113;-63
2022/07/21 10:51:37;;;;;;;4.55;2.83;;;;;;;23.05;56.32;101761.97;5116419;27;20074;-63
2022/07/21 10:54:25;;;;;;;3.63;2.60;;;;;;;23.04;56.05;101765.81;5148282;27;20107;-63
2022/07/21 10:57:27;;;;;;;3.47;2.70;;;;;;;23.04;56.36;101762.25;5132548;27;20407;-63
2022/07/21 11:00:22;;;;;;;4.40;3.03;;;;;;;23.03;56.40;101769.66;5137526;27;20059;-63
2022/07/21 11:02:53;;;;;;;3.92;2.60;;;;;;;23.03;56.89;101766.09;5123758;28;20448;-63
2022/07/21 11:05:22;;;;;;;3.10;2.78;;;;;;;23.02;56.78;101767.19;5144553;27;20090;-64
2022/07/21 11:08:09;;;;;;;4.68;3.05;;;;;;;23.00;56.64;101766.66;5126001;27;20138;-64
2022/07/21 11:10:39;;;;;;;4.15;2.53;;;;;;;22.99;56.49;101776.81;5119689;28;20058;-64
2022/07/21 11:13:07;;;;;;;4.00;3.15;;;;;;;22.96;57.17;101766.41;5126850;27;20044;-63
2022/07/21 11:15:55;;;;;;;5.38;3.17;;;;;;;22.96;56.99;101779.28;5143858;27;20139;-64
2022/07/21 11:18:24;;;;;;;4.53;3.03;;;;;;;22.93;57.09;101779.84;5131888;27;20108;-63
2022/07/21 11:21:09;;;;;;;3.95;3.13;;;;;;;22.91;57.14;101773.84;5128590;27;20047;-63
2022/07/21 11:23:38;;;;;;;5.00;3.42;;;;;;;22.87;57.30;101778.25;5114633;27;20436;-64
2022/07/21 11:26:08;;;;;;;5.18;2.97;;;;;;;22.84;57.01;101771.41;5147834;27;20051;-63
2022/07/21 11:28:36;;;;;;;4.30;2.85;;;;;;;22.87;56.93;101780.97;5126425;27;20059;-63
2022/07/21 11:31:14;;;;;;;6.25;3.17;;;;;;;22.85;57.41;101780.44;5114180;28;20063;-64
2022/07/21 11:33:43;;;;;;;5.22;3.20;;;;;;;22.85;57.40;101780.44;5144964;27;20059;-63
2022/07/21 11:36:23;;;;;;;5.78;2.35;;;;;;;22.84;56.81;101787.03;5142491;27;20080;-63
2022/07/21 11:38:59;;;;;;;8.20;2.92;;;;;;;22.80;56.99;101786.78;5123717;28;20085;-64